Time;durP1;ratioP1;P1;durP2;ratioP2;P2;SDS_P1;SDS_P2;PMS_P1;PMS_P2;Temp;Humidity;BMP_temperature;BMP_pressure;BME280_temperature;BME280_humidity;BME280_pressure;Samples;Min_cycle;Max_cycle;Signal;HPM_P1;HPM_P2
2021/01/02 00:02:42;;;;;;;45.77;27.87;;;4.90;99.90;;;;;;5056248;28;20977;-73
2021/01/02 00:05:18;;;;;;;43.67;28.37;;;4.90;99.90;;;;;;5043809;28;20917;-73
2021/01/02 00:08:12;;;;;;;44.57;27.63;;;4.90;99.90;;;;;;5042511;28;20423;-73
2021/01/02 00:10:42;;;;;;;40.87;28.10;;;4.90;99.90;;;;;;5035530;28;21012;-73
2021/01/02 00:13:33;;;;;;;43.50;28.63;;;4.90;99.90;;;;;;5054417;28;21904;-73
2021/01/02 00:16:08;;;;;;;40.43;26.37;;;4.80;99.90;;;;;;5044869;28;20463;-73
2021/01/02 00:18:54;;;;;;;37.53;26.07;;;4.80;99.90;;;;;;5042955;28;20463;-73
2021/01/02 00:21:28;;;;;;;39.87;27.50;;;4.80;99.90;;;;;;5046271;28;20621;-73
2021/01/02 00:24:23;;;;;;;41.13;26.57;;;4.70;99.90;;;;;;5037422;28;20416;-73
2021/01/02 00:27:05;;;;;;;39.43;26.87;;;4.70;99.90;;;;;;5043322;28;20473;-73
2021/01/02 00:29:59;;;;;;;41.13;26.30;;;4.80;99.90;;;;;;5044432;28;20448;-73
2021/01/02 00:32:45;;;;;;;43.00;25.00;;;4.60;99.90;;;;;;5043238;28;20413;-73
2021/01/02 00:35:20;;;;;;;38.70;25.93;;;4.70;99.90;;;;;;5042210;28;20796;-73
2021/01/02 00:37:50;;;;;;;39.60;26.33;;;4.70;99.90;;;;;;5034828;28;20467;-73
2021/01/02 00:40:18;;;;;;;33.53;24.27;;;4.70;99.90;;;;;;5043162;28;20915;-73
2021/01/02 00:42:45;;;;;;;37.07;25.70;;;4.70;99.90;;;;;;5034661;28;20413;-73
2021/01/02 00:45:17;;;;;;;40.17;26.07;;;4.80;99.90;;;;;;5048887;28;20405;-73
2021/01/02 00:47:43;;;;;;;34.73;23.97;;;4.80;99.90;;;;;;5050130;28;20432;-73
2021/01/02 00:50:14;;;;;;;36.63;24.80;;;4.70;99.90;;;;;;5034733;28;20431;-73
2021/01/02 00:52:45;;;;;;;36.17;23.90;;;4.70;99.90;;;;;;5050607;28;20428;-73
2021/01/02 00:55:22;;;;;;;40.33;26.30;;;4.80;99.90;;;;;;5050074;28;20431;-73
2021/01/02 00:58:14;;;;;;;34.40;24.20;;;4.80;99.90;;;;;;5041716;28;20823;-73
2021/01/02 01:00:41;;;;;;;37.23;25.10;;;4.90;99.90;;;;;;5045250;28;20412;-73
2021/01/02 01:03:44;;;;;;;36.70;25.80;;;4.90;99.90;;;;;;5047463;28;20455;-73
2021/01/02 01:06:11;;;;;;;39.00;25.23;;;4.90;99.90;;;;;;5042955;28;20447;-73
2021/01/02 01:08:43;;;;;;;34.33;24.30;;;4.80;99.90;;;;;;5050440;28;20498;-73
2021/01/02 01:11:14;;;;;;;36.67;23.50;;;4.80;99.90;;;;;;5034744;28;20844;-73
2021/01/02 01:13:41;;;;;;;33.63;23.90;;;4.80;99.90;;;;;;5033906;28;20494;-73
2021/01/02 01:16:07;;;;;;;38.43;25.67;;;4.80;99.90;;;;;;5037457;28;20437;-73
2021/01/02 01:18:50;;;;;;;37.97;25.30;;;4.70;99.90;;;;;;5037031;28;20461;-73
2021/01/02 01:21:19;;;;;;;35.43;24.13;;;4.70;99.90;;;;;;5042335;28;20431;-73
2021/01/02 01:24:12;;;;;;;35.33;23.47;;;4.70;99.90;;;;;;5043075;28;20912;-73
2021/01/02 01:26:57;;;;;;;32.13;22.20;;;4.70;99.90;;;;;;5053471;28;20516;-73
2021/01/02 01:29:28;;;;;;;34.63;23.77;;;4.70;99.90;;;;;;5047433;28;20784;-73
2021/01/02 01:31:58;;;;;;;32.47;22.30;;;4.60;99.90;;;;;;5045100;28;20424;-73
2021/01/02 01:34:26;;;;;;;32.30;23.63;;;4.60;99.90;;;;;;5044820;28;20511;-73
2021/01/02 01:36:53;;;;;;;34.10;22.23;;;4.60;99.90;;;;;;5043553;28;20820;-73
2021/01/02 01:39:21;;;;;;;32.20;21.97;;;4.60;99.90;;;;;;5053516;28;20503;-73
2021/01/02 01:42:03;;;;;;;29.77;21.70;;;4.60;99.90;;;;;;5037996;28;20413;-73
2021/01/02 01:45:12;;;;;;;35.87;22.43;;;4.40;99.90;;;;;;5051910;28;20416;-73
2021/01/02 01:47:40;;;;;;;31.20;21.70;;;4.30;99.90;;;;;;5039392;28;20424;-73
2021/01/02 01:50:12;;;;;;;30.73;21.97;;;4.40;99.90;;;;;;5041813;28;20463;-73
2021/01/02 01:52:51;;;;;;;31.63;20.87;;;4.40;99.90;;;;;;5045045;28;20411;-73
2021/01/02 01:55:43;;;;;;;31.10;21.43;;;4.50;99.90;;;;;;5042265;28;20501;-73
2021/01/02 01:58:15;;;;;;;29.67;21.33;;;4.40;99.90;;;;;;5040888;28;20518;-73
2021/01/02 02:00:46;;;;;;;26.63;19.00;;;4.40;99.90;;;;;;5041316;28;20432;-73
2021/01/02 02:03:26;;;;;;;30.30;19.70;;;4.40;99.90;;;;;;5034805;28;20422;-73
2021/01/02 02:06:21;;;;;;;30.67;20.00;;;4.40;99.90;;;;;;5039523;28;20440;-73
2021/01/02 02:08:56;;;;;;;27.87;19.53;;;4.40;99.90;;;;;;5038404;28;20748;-73
2021/01/02 02:11:44;;;;;;;28.70;21.13;;;4.30;99.90;;;;;;5051383;28;20775;-73
2021/01/02 02:14:26;;;;;;;28.37;19.40;;;4.30;99.90;;;;;;5033253;28;20834;-73
2021/01/02 02:17:02;;;;;;;26.73;18.03;;;4.20;99.90;;;;;;5037730;28;20474;-73
2021/01/02 02:19:57;;;;;;;30.40;18.30;;;4.30;99.90;;;;;;5051242;28;20421;-73
2021/01/02 02:22:27;;;;;;;28.97;19.27;;;4.20;99.90;;;;;;5044656;28;20487;-73
2021/01/02 02:24:54;;;;;;;24.10;18.43;;;4.30;99.90;;;;;;5049184;28;20503;-73
2021/01/02 02:27:28;;;;;;;25.30;17.80;;;4.30;99.90;;;;;;5060679;28;20447;-73
2021/01/02 02:29:57;;;;;;;26.77;18.60;;;4.30;99.90;;;;;;5055166;28;20409;-73
2021/01/02 02:32:25;;;;;;;30.80;20.67;;;4.40;99.90;;;;;;5046457;28;20521;-73
2021/01/02 02:34:53;;;;;;;25.37;17.60;;;4.30;99.90;;;;;;5069214;28;20500;-73
2021/01/02 02:37:19;;;;;;;27.23;19.70;;;4.30;99.90;;;;;;5073610;28;20471;-73
2021/01/02 02:39:46;;;;;;;27.87;18.97;;;4.30;99.90;;;;;;5065413;28;20416;-73
2021/01/02 02:42:16;;;;;;;32.17;19.20;;;4.30;99.90;;;;;;5036932;28;20418;-73
2021/01/02 02:44:46;;;;;;;31.30;19.93;;;4.40;99.90;;;;;;5049659;28;20413;-73
2021/01/02 02:47:17;;;;;;;32.23;20.17;;;4.40;99.90;;;;;;5047437;28;20451;-73
2021/01/02 02:49:46;;;;;;;25.63;20.00;;;4.40;99.90;;;;;;5056943;28;20426;-73
2021/01/02 02:52:25;;;;;;;26.43;19.53;;;4.40;99.90;;;;;;5038060;28;20429;-73
2021/01/02 02:54:52;;;;;;;29.87;19.57;;;4.50;99.90;;;;;;5052863;28;20433;-73
2021/01/02 02:57:20;;;;;;;27.17;21.63;;;4.40;99.90;;;;;;5035874;28;20468;-73
2021/01/02 02:59:45;;;;;;;27.07;19.53;;;4.40;99.90;;;;;;5045078;28;20417;-73
2021/01/02 03:02:13;;;;;;;24.20;19.00;;;4.40;99.90;;;;;;5040810;28;20483;-73
2021/01/02 03:04:39;;;;;;;24.10;18.63;;;4.40;99.90;;;;;;5048374;28;20205;-73
2021/01/02 03:07:05;;;;;;;26.60;18.90;;;4.40;99.90;;;;;;5047627;28;20444;-73
2021/01/02 03:09:32;;;;;;;27.67;19.13;;;4.40;99.90;;;;;;5048424;28;20267;-73
2021/01/02 03:11:58;;;;;;;28.33;19.90;;;4.40;99.90;;;;;;5055860;28;20465;-73
2021/01/02 03:14:23;;;;;;;25.00;19.47;;;4.40;99.90;;;;;;5048047;28;20436;-73
2021/01/02 03:16:49;;;;;;;25.30;19.30;;;4.40;99.90;;;;;;5048863;28;20251;-73
2021/01/02 03:19:14;;;;;;;31.07;20.70;;;4.40;99.90;;;;;;5045802;28;20235;-73
2021/01/02 03:21:40;;;;;;;30.43;20.50;;;4.30;99.90;;;;;;5042657;28;20184;-73
2021/01/02 03:24:07;;;;;;;27.27;20.00;;;4.30;99.90;;;;;;5043237;28;20177;-72
2021/01/02 03:26:33;;;;;;;31.30;20.17;;;4.40;99.90;;;;;;5048389;28;20195;-73
2021/01/02 03:28:58;;;;;;;27.07;18.90;;;4.40;99.90;;;;;;5056255;28;20426;-73
2021/01/02 03:31:24;;;;;;;31.70;20.30;;;4.40;99.90;;;;;;5055157;28;20212;-73
2021/01/02 03:33:50;;;;;;;28.90;20.20;;;4.30;99.90;;;;;;5055249;28;20185;-73
2021/01/02 03:36:16;;;;;;;30.83;20.43;;;4.30;99.90;;;;;;5047546;28;20555;-73
2021/01/02 03:38:52;;;;;;;29.90;20.27;;;4.40;99.90;;;;;;5036800;28;20245;-73
2021/01/02 03:41:18;;;;;;;29.27;20.80;;;4.40;99.90;;;;;;5044553;28;20454;-73
2021/01/02 03:43:44;;;;;;;30.43;20.23;;;4.40;99.90;;;;;;5044592;28;20927;-73
2021/01/02 03:46:09;;;;;;;30.23;21.50;;;4.30;99.90;;;;;;5044693;28;20483;-73
2021/01/02 03:48:35;;;;;;;25.77;18.87;;;4.30;99.90;;;;;;5037830;28;20184;-73
2021/01/02 03:51:00;;;;;;;29.17;19.77;;;4.30;99.90;;;;;;5056288;28;20172;-73
2021/01/02 03:53:26;;;;;;;29.27;19.47;;;4.30;99.90;;;;;;5041290;28;20683;-73
2021/01/02 03:55:52;;;;;;;28.87;20.37;;;4.30;99.90;;;;;;5055372;28;20679;-73
2021/01/02 03:58:17;;;;;;;29.83;20.30;;;4.40;99.90;;;;;;5046929;28;20229;-73
2021/01/02 04:00:43;;;;;;;28.67;19.40;;;4.40;99.90;;;;;;5053678;28;20697;-73
2021/01/02 04:03:09;;;;;;;27.93;20.10;;;4.40;99.90;;;;;;5035890;28;20176;-73
2021/01/02 04:05:34;;;;;;;31.10;20.90;;;4.40;99.90;;;;;;5044050;28;20203;-73
2021/01/02 04:08:01;;;;;;;31.60;21.57;;;4.30;99.90;;;;;;5036114;28;20900;-73
2021/01/02 04:10:26;;;;;;;27.70;19.80;;;4.40;99.90;;;;;;5044491;28;20426;-73
2021/01/02 04:12:52;;;;;;;29.63;21.30;;;4.30;99.90;;;;;;5051863;28;20415;-73
2021/01/02 04:15:17;;;;;;;28.70;20.10;;;4.40;99.90;;;;;;5039848;28;20168;-73
2021/01/02 04:17:43;;;;;;;29.60;20.10;;;4.40;99.90;;;;;;5045527;28;20562;-73
2021/01/02 04:20:10;;;;;;;27.87;19.70;;;4.40;99.90;;;;;;5051087;28;20243;-73
2021/01/02 04:22:36;;;;;;;26.90;20.03;;;4.40;99.90;;;;;;5042204;28;20409;-73
2021/01/02 04:25:02;;;;;;;27.27;20.00;;;4.30;99.90;;;;;;5053088;28;20982;-73
2021/01/02 04:27:28;;;;;;;28.93;20.67;;;4.40;99.90;;;;;;5054229;28;20536;-73
2021/01/02 04:29:54;;;;;;;28.60;18.20;;;4.40;99.90;;;;;;5037679;28;20515;-73
2021/01/02 04:32:19;;;;;;;31.57;20.27;;;4.50;99.90;;;;;;5038693;28;20426;-73
2021/01/02 04:34:45;;;;;;;25.63;19.77;;;4.50;99.90;;;;;;5055505;28;20206;-73
2021/01/02 04:37:10;;;;;;;24.93;17.83;;;4.30;99.90;;;;;;5045896;28;20229;-73
2021/01/02 04:39:36;;;;;;;30.17;20.53;;;4.30;99.90;;;;;;5041756;28;20666;-73
2021/01/02 04:42:02;;;;;;;28.13;18.83;;;4.30;99.90;;;;;;5043069;28;20180;-73
2021/01/02 04:44:28;;;;;;;24.17;18.00;;;4.40;99.90;;;;;;5038241;28;20191;-73
2021/01/02 04:46:55;;;;;;;31.07;20.37;;;4.30;99.90;;;;;;5054028;28;20200;-73
2021/01/02 04:49:21;;;;;;;25.03;19.17;;;4.40;99.90;;;;;;5044328;28;20182;-73
2021/01/02 04:51:47;;;;;;;26.00;19.40;;;4.40;99.90;;;;;;5034984;28;20419;-74
2021/01/02 04:54:15;;;;;;;26.30;18.93;;;4.50;99.90;;;;;;5043389;28;20878;-73
2021/01/02 04:56:40;;;;;;;29.57;20.47;;;4.40;99.90;;;;;;5045895;28;20277;-73
2021/01/02 04:59:11;;;;;;;27.00;18.10;;;4.30;99.90;;;;;;5046520;28;20422;-73
2021/01/02 05:01:37;;;;;;;29.70;18.23;;;4.40;99.90;;;;;;5042754;28;20181;-73
2021/01/02 05:04:03;;;;;;;27.93;19.70;;;4.40;99.90;;;;;;5034403;28;20506;-73
2021/01/02 05:06:29;;;;;;;24.63;16.90;;;4.40;99.90;;;;;;5044631;28;20448;-73
2021/01/02 05:08:54;;;;;;;29.43;18.73;;;4.50;99.90;;;;;;5045672;28;20220;-73
2021/01/02 05:11:20;;;;;;;27.40;18.63;;;4.50;99.90;;;;;;5039445;28;20636;-73
2021/01/02 05:13:46;;;;;;;26.27;19.10;;;4.60;99.90;;;;;;5042955;28;20633;-73
2021/01/02 05:16:26;;;;;;;25.40;17.23;;;4.50;99.90;;;;;;5049076;28;20478;-73
2021/01/02 05:18:57;;;;;;;25.63;17.70;;;4.50;99.90;;;;;;5046055;28;20926;-73
2021/01/02 05:21:24;;;;;;;23.30;17.73;;;4.40;99.90;;;;;;5045775;28;20421;-73
2021/01/02 05:24:02;;;;;;;27.60;18.47;;;4.40;99.90;;;;;;5045811;28;20958;-73
2021/01/02 05:26:28;;;;;;;24.93;17.23;;;4.50;99.90;;;;;;5054011;28;20435;-73
2021/01/02 05:29:10;;;;;;;24.63;17.10;;;4.50;99.90;;;;;;5043041;28;20490;-73
2021/01/02 05:31:37;;;;;;;25.37;18.10;;;4.50;99.90;;;;;;5042979;28;20446;-73
2021/01/02 05:34:10;;;;;;;26.37;17.90;;;4.50;99.90;;;;;;5042072;28;20509;-73
2021/01/02 05:36:36;;;;;;;26.07;18.70;;;4.50;99.90;;;;;;5041294;28;20503;-73
2021/01/02 05:39:03;;;;;;;25.83;18.40;;;4.40;99.90;;;;;;5041932;28;20426;-73
2021/01/02 05:41:55;;;;;;;26.13;17.77;;;4.40;99.90;;;;;;5049357;28;20429;-72
2021/01/02 05:44:23;;;;;;;20.23;15.77;;;4.40;99.90;;;;;;5047776;28;20415;-73
2021/01/02 05:46:53;;;;;;;24.67;15.60;;;4.40;99.90;;;;;;5036712;28;20433;-74
2021/01/02 05:49:38;;;;;;;23.60;16.17;;;4.40;99.90;;;;;;5040720;28;20836;-73
2021/01/02 05:52:11;;;;;;;24.70;17.17;;;4.30;99.90;;;;;;5041818;28;20450;-73
2021/01/02 05:54:51;;;;;;;25.03;17.70;;;4.20;99.90;;;;;;5038052;28;20508;-73
2021/01/02 05:57:29;;;;;;;22.90;16.50;;;4.20;99.90;;;;;;5044721;28;20886;-73
2021/01/02 05:59:58;;;;;;;25.03;18.03;;;4.00;99.90;;;;;;5037629;28;20437;-73
2021/01/02 06:02:25;;;;;;;24.93;16.83;;;3.90;99.90;;;;;;5045621;28;20426;-73
2021/01/02 06:05:05;;;;;;;25.63;17.00;;;3.90;99.90;;;;;;5045347;28;20425;-73
2021/01/02 06:07:32;;;;;;;26.70;17.10;;;3.90;99.90;;;;;;5045857;28;20422;-73
2021/01/02 06:09:58;;;;;;;23.73;15.80;;;3.90;99.90;;;;;;5054795;28;20414;-73
2021/01/02 06:12:35;;;;;;;30.40;16.80;;;3.90;99.90;;;;;;5057289;28;20499;-73
2021/01/02 06:15:12;;;;;;;25.83;16.97;;;4.00;99.90;;;;;;5043321;28;20425;-73
2021/01/02 06:17:39;;;;;;;24.50;16.70;;;4.00;99.90;;;;;;5067229;28;20458;-74
2021/01/02 06:20:16;;;;;;;21.80;15.57;;;4.00;99.90;;;;;;5059077;28;20405;-73
2021/01/02 06:22:42;;;;;;;28.37;18.07;;;3.90;99.90;;;;;;5043158;28;20421;-73
2021/01/02 06:25:10;;;;;;;25.23;16.27;;;3.90;99.90;;;;;;5048089;28;20427;-73
2021/01/02 06:27:44;;;;;;;25.00;16.83;;;3.90;99.90;;;;;;5045737;28;20179;-73
2021/01/02 06:30:15;;;;;;;24.63;16.40;;;3.90;99.90;;;;;;5037399;28;20441;-73
2021/01/02 06:32:44;;;;;;;24.10;16.00;;;3.80;99.90;;;;;;5044579;28;20464;-73
2021/01/02 06:35:10;;;;;;;22.23;15.63;;;3.90;99.90;;;;;;5052053;28;20457;-74
2021/01/02 06:37:47;;;;;;;22.70;16.40;;;3.90;99.90;;;;;;5045994;28;20491;-73
2021/01/02 06:40:30;;;;;;;24.70;16.60;;;4.00;99.90;;;;;;5044293;28;20196;-73
2021/01/02 06:42:59;;;;;;;22.17;15.80;;;4.10;99.90;;;;;;5045330;28;20418;-73
2021/01/02 06:45:36;;;;;;;23.57;16.67;;;4.10;99.90;;;;;;5053787;28;21005;-74
2021/01/02 06:48:17;;;;;;;23.47;17.63;;;4.10;99.90;;;;;;5042591;28;20479;-73
2021/01/02 06:50:47;;;;;;;23.53;16.57;;;4.10;99.90;;;;;;5056702;28;20478;-73
2021/01/02 06:53:33;;;;;;;25.60;18.40;;;4.10;99.90;;;;;;5040500;28;20437;-73
2021/01/02 06:56:01;;;;;;;25.67;18.73;;;4.00;99.90;;;;;;5045203;28;20437;-73
2021/01/02 06:58:36;;;;;;;29.40;21.13;;;3.90;99.90;;;;;;5045063;28;20527;-73
2021/01/02 07:01:03;;;;;;;29.20;19.77;;;3.80;99.90;;;;;;5049705;28;20419;-73
2021/01/02 07:03:41;;;;;;;29.60;20.30;;;3.70;99.90;;;;;;5040423;28;20447;-74
2021/01/02 07:06:24;;;;;;;31.70;20.33;;;3.80;99.90;;;;;;5036963;28;20437;-73
2021/01/02 07:08:58;;;;;;;31.23;20.57;;;3.90;99.90;;;;;;5045331;28;20421;-73
2021/01/02 07:11:35;;;;;;;29.73;19.60;;;3.80;99.90;;;;;;5044996;28;20415;-73
2021/01/02 07:14:14;;;;;;;30.67;21.57;;;3.70;99.90;;;;;;5044430;28;20806;-73
2021/01/02 07:16:57;;;;;;;33.07;20.10;;;3.70;99.90;;;;;;5053523;28;20851;-73
2021/01/02 07:19:26;;;;;;;33.47;21.60;;;3.80;99.90;;;;;;5055177;28;20458;-73
2021/01/02 07:22:19;;;;;;;29.67;19.50;;;3.80;99.90;;;;;;5055158;28;20531;-73
2021/01/02 07:24:57;;;;;;;28.73;20.13;;;3.80;99.90;;;;;;5055321;28;20420;-73
2021/01/02 07:27:51;;;;;;;32.43;21.83;;;3.80;99.90;;;;;;5047662;28;20447;-73
2021/01/02 07:30:17;;;;;;;28.33;20.40;;;3.90;99.90;;;;;;5042241;28;20441;-73
2021/01/02 07:32:44;;;;;;;31.77;19.90;;;4.00;99.90;;;;;;5043883;28;20417;-73
2021/01/02 07:35:13;;;;;;;28.83;19.57;;;3.90;99.90;;;;;;5044113;28;21037;-73
2021/01/02 07:37:41;;;;;;;31.43;19.80;;;4.00;99.90;;;;;;5044144;28;20532;-73
2021/01/02 07:40:11;;;;;;;29.17;18.50;;;4.00;99.90;;;;;;5044166;28;20533;-73
2021/01/02 07:42:58;;;;;;;28.30;20.50;;;4.00;99.90;;;;;;5041921;28;20397;-73
2021/01/02 07:45:25;;;;;;;31.57;19.67;;;4.00;99.90;;;;;;5055008;28;20460;-73
2021/01/02 07:47:56;;;;;;;31.03;21.10;;;4.00;99.90;;;;;;5049859;28;20422;-73
2021/01/02 07:50:24;;;;;;;33.23;20.37;;;4.10;99.90;;;;;;5052300;28;20425;-73
2021/01/02 07:52:51;;;;;;;26.07;18.40;;;4.10;99.90;;;;;;5053687;28;20760;-73
2021/01/02 07:55:20;;;;;;;28.20;18.50;;;4.10;99.90;;;;;;5039201;28;20921;-73
2021/01/02 07:57:47;;;;;;;29.73;20.83;;;4.20;99.90;;;;;;5041698;28;21038;-73
2021/01/02 08:00:13;;;;;;;30.60;20.10;;;4.20;99.90;;;;;;5052398;28;20769;-73
2021/01/02 08:02:40;;;;;;;28.50;19.17;;;4.20;99.90;;;;;;5050824;28;20783;-73
2021/01/02 08:05:14;;;;;;;26.17;18.67;;;4.20;99.90;;;;;;5050868;28;20537;-73
2021/01/02 08:07:41;;;;;;;26.47;18.97;;;4.30;99.90;;;;;;5047543;28;20423;-73
2021/01/02 08:10:13;;;;;;;31.17;18.97;;;4.40;99.90;;;;;;5047436;28;20436;-73
2021/01/02 08:12:46;;;;;;;28.40;18.53;;;4.30;99.90;;;;;;5047223;28;20422;-72
2021/01/02 08:15:15;;;;;;;26.53;18.73;;;4.30;99.90;;;;;;5054632;28;20427;-73
2021/01/02 08:17:41;;;;;;;26.77;18.27;;;4.30;99.90;;;;;;5043354;28;20462;-73
2021/01/02 08:20:08;;;;;;;28.13;18.80;;;4.30;99.90;;;;;;5050903;28;20889;-73
2021/01/02 08:22:38;;;;;;;28.13;19.20;;;4.30;99.90;;;;;;5055413;28;20446;-74
2021/01/02 08:25:17;;;;;;;26.43;18.70;;;4.30;99.90;;;;;;5047064;28;20444;-73
2021/01/02 08:27:45;;;;;;;27.83;19.67;;;4.40;99.90;;;;;;5051526;28;20544;-73
2021/01/02 08:30:12;;;;;;;26.80;18.07;;;4.40;99.90;;;;;;5042161;28;20437;-73
2021/01/02 08:32:49;;;;;;;26.30;18.50;;;4.50;99.90;;;;;;5052613;28;20958;-74
2021/01/02 08:35:19;;;;;;;27.87;18.33;;;4.50;99.90;;;;;;5043275;28;20444;-73
2021/01/02 08:37:47;;;;;;;28.60;18.40;;;4.60;99.90;;;;;;5043906;28;20547;-73
2021/01/02 08:40:15;;;;;;;28.40;18.93;;;4.60;99.90;;;;;;5036264;28;20427;-72
2021/01/02 08:42:42;;;;;;;28.27;18.87;;;4.60;99.90;;;;;;5040300;28;20455;-73
2021/01/02 08:45:10;;;;;;;30.20;20.17;;;4.70;99.90;;;;;;5049516;28;20423;-73
2021/01/02 08:47:37;;;;;;;27.90;18.57;;;4.60;99.90;;;;;;5049706;28;20912;-73
2021/01/02 08:50:15;;;;;;;23.90;17.23;;;4.60;99.90;;;;;;5043150;28;20924;-73
2021/01/02 08:52:44;;;;;;;27.27;17.90;;;4.70;99.90;;;;;;5046938;28;20424;-73
2021/01/02 08:55:14;;;;;;;24.90;17.70;;;4.70;99.90;;;;;;5041575;28;20429;-72
2021/01/02 08:57:50;;;;;;;28.83;19.50;;;4.80;99.90;;;;;;5042795;28;20499;-73
2021/01/02 09:00:24;;;;;;;27.17;18.43;;;4.80;99.90;;;;;;5051063;28;20424;-73
2021/01/02 09:03:08;;;;;;;28.50;17.70;;;4.70;99.90;;;;;;5049198;28;20464;-73
2021/01/02 09:05:36;;;;;;;31.20;18.70;;;4.70;99.90;;;;;;5048515;28;20439;-72
2021/01/02 09:08:10;;;;;;;27.77;17.43;;;4.60;99.90;;;;;;5044385;28;20439;-73
2021/01/02 09:10:37;;;;;;;28.20;17.87;;;4.60;99.90;;;;;;5042691;28;20494;-72
2021/01/02 09:13:11;;;;;;;29.27;19.10;;;4.70;99.90;;;;;;5051175;28;20438;-71
2021/01/02 09:15:43;;;;;;;25.73;17.33;;;4.70;99.90;;;;;;5045525;28;20444;-71
2021/01/02 09:18:11;;;;;;;26.80;17.30;;;4.70;99.90;;;;;;5045027;28;20463;-71
2021/01/02 09:20:36;;;;;;;27.87;17.70;;;4.70;99.90;;;;;;5048157;28;20421;-72
2021/01/02 09:23:02;;;;;;;24.20;17.40;;;4.70;99.90;;;;;;5043219;28;20434;-70
2021/01/02 09:25:29;;;;;;;23.03;16.13;;;4.70;99.90;;;;;;5045641;28;20211;-72
2021/01/02 09:27:55;;;;;;;24.37;16.80;;;4.70;99.90;;;;;;5039142;28;20421;-71
2021/01/02 09:30:22;;;;;;;29.57;18.33;;;4.80;99.90;;;;;;5052488;28;20424;-71
2021/01/02 09:32:48;;;;;;;24.23;17.40;;;4.80;99.90;;;;;;5053339;28;20845;-71
2021/01/02 09:35:13;;;;;;;24.40;17.53;;;4.80;99.90;;;;;;5044232;28;20421;-71
2021/01/02 09:37:43;;;;;;;28.87;18.60;;;4.90;99.90;;;;;;5035386;28;20456;-73
2021/01/02 09:40:15;;;;;;;29.50;16.80;;;4.90;99.90;;;;;;5034481;28;20201;-71
2021/01/02 09:42:40;;;;;;;26.17;15.50;;;5.00;99.90;;;;;;5051618;28;20472;-72
2021/01/02 09:45:06;;;;;;;24.43;17.93;;;5.00;99.90;;;;;;5053005;28;20423;-72
2021/01/02 09:47:32;;;;;;;24.00;18.17;;;5.10;99.90;;;;;;5042135;28;20296;-71
2021/01/02 09:49:57;;;;;;;25.87;16.67;;;5.10;99.90;;;;;;5045950;28;20783;-71
2021/01/02 09:52:23;;;;;;;25.23;17.27;;;5.10;99.90;;;;;;5055278;28;20213;-71
2021/01/02 09:54:49;;;;;;;24.53;17.20;;;5.00;99.90;;;;;;5043347;28;20586;-71
2021/01/02 09:57:15;;;;;;;24.47;17.70;;;5.10;99.90;;;;;;5037509;28;20216;-71
2021/01/02 09:59:44;;;;;;;25.80;16.57;;;5.10;99.90;;;;;;5051445;28;20464;-71
2021/01/02 10:02:09;;;;;;;23.00;16.70;;;5.10;99.90;;;;;;5057420;28;20199;-71
2021/01/02 10:04:44;;;;;;;20.77;15.50;;;5.10;99.90;;;;;;5043027;28;20436;-72
2021/01/02 10:07:11;;;;;;;25.57;16.03;;;5.10;99.90;;;;;;5039079;28;20202;-72
2021/01/02 10:09:44;;;;;;;23.33;16.40;;;5.20;99.90;;;;;;5049852;28;20463;-71
2021/01/02 10:12:11;;;;;;;22.97;16.07;;;5.30;99.90;;;;;;5032130;28;20424;-71
2021/01/02 10:14:37;;;;;;;23.03;16.97;;;5.30;99.90;;;;;;5042870;28;20432;-71
2021/01/02 10:17:04;;;;;;;23.17;16.67;;;5.30;99.90;;;;;;5053207;28;20525;-71
2021/01/02 10:19:32;;;;;;;20.40;14.07;;;5.30;99.90;;;;;;5045668;28;20175;-71
2021/01/02 10:21:59;;;;;;;21.30;15.90;;;5.40;99.90;;;;;;5044834;28;20421;-71
2021/01/02 10:24:24;;;;;;;24.30;16.30;;;5.40;99.90;;;;;;5039227;28;20421;-71
2021/01/02 10:26:50;;;;;;;22.30;15.50;;;5.50;99.90;;;;;;5042145;28;20499;-71
2021/01/02 10:29:15;;;;;;;19.27;13.73;;;5.50;99.90;;;;;;5045060;28;20183;-71
2021/01/02 10:31:41;;;;;;;21.77;14.73;;;5.50;99.90;;;;;;5045321;28;20213;-71
2021/01/02 10:34:06;;;;;;;20.03;14.43;;;5.40;99.90;;;;;;5042809;28;20190;-72
2021/01/02 10:36:32;;;;;;;19.80;13.70;;;5.30;99.90;;;;;;5047412;28;20205;-71
2021/01/02 10:38:57;;;;;;;21.50;15.70;;;5.30;99.90;;;;;;5049975;28;20252;-71
2021/01/02 10:41:23;;;;;;;21.10;14.93;;;5.20;99.90;;;;;;5045793;28;20194;-72
2021/01/02 10:43:49;;;;;;;24.77;15.13;;;5.30;99.90;;;;;;5054475;28;20173;-72
2021/01/02 10:46:14;;;;;;;21.43;14.33;;;5.30;99.90;;;;;;5052138;28;20190;-71
2021/01/02 10:48:40;;;;;;;18.37;13.83;;;5.40;99.90;;;;;;5039505;28;20178;-72
2021/01/02 10:51:15;;;;;;;21.10;14.10;;;5.40;99.90;;;;;;5048692;28;20182;-71
2021/01/02 10:53:41;;;;;;;22.43;15.50;;;5.40;99.90;;;;;;5047199;28;20174;-72
2021/01/02 10:56:11;;;;;;;21.90;15.00;;;5.40;99.90;;;;;;5049586;28;20471;-71
2021/01/02 10:58:37;;;;;;;20.50;14.13;;;5.30;99.90;;;;;;5044609;28;20282;-71
2021/01/02 11:01:05;;;;;;;21.30;14.87;;;5.30;99.90;;;;;;5052808;28;20444;-72
2021/01/02 11:03:31;;;;;;;23.70;14.63;;;5.20;99.90;;;;;;5043981;28;20172;-71
2021/01/02 11:05:58;;;;;;;22.67;14.80;;;5.30;99.90;;;;;;5044395;28;20865;-72
2021/01/02 11:08:23;;;;;;;19.03;14.17;;;5.40;99.90;;;;;;5045438;28;20852;-71
2021/01/02 11:10:49;;;;;;;21.57;14.77;;;5.40;99.90;;;;;;5036501;28;20472;-71
2021/01/02 11:13:14;;;;;;;18.47;13.70;;;5.50;99.90;;;;;;5037191;28;20233;-71
2021/01/02 11:15:40;;;;;;;21.37;13.67;;;5.60;99.90;;;;;;5039548;28;20210;-72
2021/01/02 11:18:05;;;;;;;21.37;15.43;;;5.60;99.90;;;;;;5055883;28;20202;-71
2021/01/02 11:20:31;;;;;;;20.40;14.37;;;5.60;99.90;;;;;;5047494;28;20254;-71
2021/01/02 11:22:57;;;;;;;20.27;14.23;;;5.70;99.90;;;;;;5047596;28;20170;-71
2021/01/02 11:25:22;;;;;;;22.40;15.53;;;5.80;99.90;;;;;;5040200;28;20210;-71
2021/01/02 11:27:47;;;;;;;20.23;14.80;;;5.80;99.90;;;;;;5049494;28;20177;-72
2021/01/02 11:30:13;;;;;;;25.73;15.13;;;5.80;99.90;;;;;;5055822;28;20185;-72
2021/01/02 11:32:41;;;;;;;18.97;14.20;;;5.80;99.90;;;;;;5037521;28;20670;-72
2021/01/02 11:35:07;;;;;;;19.37;14.60;;;5.80;99.90;;;;;;5044276;28;20443;-72
2021/01/02 11:37:32;;;;;;;19.03;14.07;;;5.80;99.90;;;;;;5044869;28;20536;-72
2021/01/02 11:39:58;;;;;;;19.27;14.67;;;5.80;99.90;;;;;;5044482;28;20992;-72
2021/01/02 11:42:23;;;;;;;17.43;14.03;;;5.90;99.90;;;;;;5036507;28;20258;-72
2021/01/02 11:44:49;;;;;;;23.60;14.73;;;5.90;99.90;;;;;;5044096;28;20182;-72
2021/01/02 11:47:15;;;;;;;19.67;15.40;;;6.00;99.90;;;;;;5036515;28;20345;-72
2021/01/02 11:49:40;;;;;;;19.30;14.80;;;6.00;99.90;;;;;;5052623;28;20353;-72
2021/01/02 11:52:08;;;;;;;19.70;14.17;;;6.00;99.90;;;;;;5043998;28;20175;-72
2021/01/02 11:54:34;;;;;;;20.63;14.53;;;6.10;99.90;;;;;;5035110;28;20182;-72
2021/01/02 11:57:01;;;;;;;20.47;13.67;;;6.10;99.90;;;;;;5046689;28;20448;-72
2021/01/02 11:59:27;;;;;;;19.27;13.80;;;6.20;99.90;;;;;;5040940;28;20524;-72
2021/01/02 12:01:55;;;;;;;21.97;14.63;;;6.20;99.90;;;;;;5045187;28;20824;-71
2021/01/02 12:04:23;;;;;;;20.33;15.07;;;6.30;99.90;;;;;;5047491;28;20171;-72
2021/01/02 12:06:50;;;;;;;19.37;14.47;;;6.30;99.90;;;;;;5039421;28;20566;-71
2021/01/02 12:09:16;;;;;;;19.00;13.57;;;6.30;99.90;;;;;;5054579;28;20412;-71
2021/01/02 12:11:45;;;;;;;19.87;14.23;;;6.30;99.90;;;;;;5040378;28;20748;-71
2021/01/02 12:14:13;;;;;;;21.43;14.43;;;6.30;99.90;;;;;;5035622;28;20432;-72
2021/01/02 12:16:50;;;;;;;20.07;14.50;;;6.30;99.90;;;;;;5034804;28;20556;-72
2021/01/02 12:19:19;;;;;;;21.30;14.57;;;6.20;99.90;;;;;;5035931;28;20440;-71
2021/01/02 12:21:44;;;;;;;20.00;13.67;;;6.20;99.90;;;;;;5035942;28;20424;-71
2021/01/02 12:24:10;;;;;;;19.70;15.20;;;6.20;99.90;;;;;;5037155;28;20406;-72
2021/01/02 12:26:51;;;;;;;21.70;13.60;;;6.30;99.90;;;;;;5054830;28;20198;-71
2021/01/02 12:29:18;;;;;;;21.33;16.10;;;6.40;99.90;;;;;;5036761;28;20194;-71
2021/01/02 12:31:48;;;;;;;16.90;13.70;;;6.40;99.90;;;;;;5054923;28;20409;-71
2021/01/02 12:34:14;;;;;;;20.40;14.90;;;6.50;99.90;;;;;;5045518;28;20433;-71
2021/01/02 12:36:42;;;;;;;19.70;14.17;;;6.40;99.90;;;;;;5043059;28;20433;-72
2021/01/02 12:39:08;;;;;;;15.83;11.83;;;6.40;99.90;;;;;;5042744;28;20427;-72
2021/01/02 12:41:35;;;;;;;18.77;14.33;;;6.40;99.90;;;;;;5042406;28;20460;-72
2021/01/02 12:44:01;;;;;;;20.60;14.73;;;6.30;99.90;;;;;;5049262;28;20904;-72
2021/01/02 12:46:39;;;;;;;19.03;14.67;;;6.40;99.90;;;;;;5045666;28;20438;-72
2021/01/02 12:49:05;;;;;;;23.00;16.37;;;6.40;99.90;;;;;;5048375;28;20405;-72
2021/01/02 12:51:31;;;;;;;21.00;14.10;;;6.40;99.90;;;;;;5035031;28;20513;-72
2021/01/02 12:53:56;;;;;;;21.17;15.57;;;6.30;99.90;;;;;;5041585;28;20496;-72